createdAt,value
2022-12-25T07:06:18.884Z,1005.27
2022-12-25T07:07:20.932Z,1005.26
2022-12-25T07:08:22.937Z,1005.32
2022-12-25T07:09:25.077Z,1005.33
2022-12-25T07:10:27.097Z,1005.34
2022-12-25T07:11:29.107Z,1005.37
2022-12-25T07:12:31.127Z,1005.43
2022-12-25T07:13:33.216Z,1005.43
2022-12-25T07:14:35.251Z,1005.47
2022-12-25T07:15:38.223Z,1005.48
2022-12-25T07:16:39.160Z,1005.46
2022-12-25T07:17:40.733Z,1005.49
2022-12-25T07:18:42.763Z,1005.47
2022-12-25T07:19:45.571Z,1005.48
2022-12-25T07:20:46.542Z,1005.49
2022-12-25T07:21:48.557Z,1005.49
2022-12-25T07:22:50.562Z,1005.48
2022-12-25T07:23:52.628Z,1005.51
2022-12-25T07:24:54.620Z,1005.51
2022-12-25T07:25:56.637Z,1005.55
2022-12-25T07:26:58.653Z,1005.53
2022-12-25T07:28:00.684Z,1005.52
2022-12-25T07:29:02.707Z,1005.51
2022-12-25T07:30:04.728Z,1005.47
2022-12-25T07:31:06.730Z,1005.51
2022-12-25T07:32:08.776Z,1005.50
2022-12-25T07:33:10.791Z,1005.45
2022-12-25T07:34:12.850Z,1005.48
2022-12-25T07:35:14.884Z,1005.48
2022-12-25T07:36:16.908Z,1005.48
2022-12-25T07:37:18.913Z,1005.49
2022-12-25T07:38:20.938Z,1005.46
2022-12-25T07:39:22.971Z,1005.49
2022-12-25T07:40:24.963Z,1005.50
2022-12-25T07:41:26.996Z,1005.46
2022-12-25T07:42:29.006Z,1005.49
2022-12-25T07:43:31.035Z,1005.43
2022-12-25T07:44:33.062Z,1005.47
2022-12-25T07:45:35.147Z,1005.41
2022-12-25T07:46:37.135Z,1005.42
2022-12-25T07:47:39.165Z,1005.38
2022-12-25T07:48:41.203Z,1005.37
2022-12-25T07:49:43.202Z,1005.34
2022-12-25T07:50:45.221Z,1005.33
2022-12-25T07:51:47.256Z,1005.29
2022-12-25T07:52:49.273Z,1005.25
2022-12-25T07:53:51.293Z,1005.27
2022-12-25T07:54:53.348Z,1005.31
2022-12-25T07:55:55.350Z,1005.27
2022-12-25T07:56:57.369Z,1005.27
2022-12-25T07:57:59.379Z,1005.29
2022-12-25T07:59:01.384Z,1005.38
2022-12-25T08:00:03.433Z,1005.37
2022-12-25T08:01:05.568Z,1005.34
2022-12-25T08:02:06.868Z,1005.35
2022-12-25T08:03:08.255Z,1005.31
2022-12-25T08:04:09.519Z,1005.27
2022-12-25T08:05:11.537Z,1005.29
2022-12-25T08:06:13.545Z,1005.34
2022-12-25T08:07:15.571Z,1005.33
2022-12-25T08:08:17.593Z,1005.32
2022-12-25T08:09:19.610Z,1005.31
2022-12-25T08:10:21.654Z,1005.30
2022-12-25T08:11:23.678Z,1005.26
2022-12-25T08:12:25.685Z,1005.17
2022-12-25T08:13:27.731Z,1005.19
2022-12-25T08:14:29.729Z,1005.18
2022-12-25T08:15:31.767Z,1005.15
2022-12-25T08:16:33.869Z,1005.15
2022-12-25T08:17:35.884Z,1005.12
2022-12-25T08:18:37.918Z,1005.19
2022-12-25T08:19:39.913Z,1005.19
2022-12-25T08:20:41.948Z,1005.16
2022-12-25T08:21:43.973Z,1005.14
2022-12-25T08:22:45.987Z,1005.16
2022-12-25T08:23:48.010Z,1005.17
2022-12-25T08:24:50.038Z,1005.10
2022-12-25T08:25:52.075Z,1005.08
2022-12-25T08:26:54.094Z,1005.12
2022-12-25T08:27:56.092Z,1005.05
2022-12-25T08:28:58.130Z,1004.99
2022-12-25T08:30:00.174Z,1004.96
2022-12-25T08:31:01.485Z,1004.95
2022-12-25T08:32:03.498Z,1004.90
2022-12-25T08:33:05.534Z,1004.83
2022-12-25T08:34:07.569Z,1004.83
2022-12-25T08:35:09.582Z,1004.84
2022-12-25T08:36:11.650Z,1004.86
2022-12-25T08:37:13.676Z,1004.87
2022-12-25T08:38:15.687Z,1004.92
2022-12-25T08:39:17.704Z,1004.95
2022-12-25T08:40:19.724Z,1005.01
2022-12-25T08:41:21.743Z,1005.00
2022-12-25T08:42:23.774Z,1004.99
2022-12-25T08:43:25.792Z,1004.96
2022-12-25T08:44:27.807Z,1004.98
2022-12-25T08:45:34.694Z,1005.07
2022-12-25T08:46:31.307Z,1005.08
2022-12-25T08:47:33.301Z,1005.05
2022-12-25T08:48:35.317Z,1005.03
2022-12-25T08:49:37.330Z,1005.03
2022-12-25T08:50:39.447Z,1005.03
2022-12-25T08:51:41.452Z,1005.03
2022-12-25T08:52:43.491Z,1005.07
2022-12-25T08:53:45.517Z,1005.05
2022-12-25T08:54:47.537Z,1004.98
2022-12-25T08:55:49.553Z,1004.96
2022-12-25T08:57:03.019Z,1004.91
2022-12-25T08:57:53.081Z,1004.85
2022-12-25T08:58:55.127Z,1004.85
2022-12-25T08:59:57.123Z,1004.85
2022-12-25T09:01:00.173Z,1004.84
2022-12-25T09:02:01.218Z,1004.80
2022-12-25T09:03:03.293Z,1004.81
2022-12-25T09:04:05.431Z,1004.79
2022-12-25T09:05:07.465Z,1004.76
2022-12-25T09:06:09.483Z,1004.75
2022-12-25T09:07:11.505Z,1004.81
2022-12-25T09:08:13.523Z,1004.83
2022-12-25T09:09:16.512Z,1004.75
2022-12-25T09:10:17.430Z,1004.77
2022-12-25T09:11:19.591Z,1004.73
2022-12-25T09:12:21.617Z,1004.72
2022-12-25T09:13:23.625Z,1004.68
2022-12-25T09:14:25.671Z,1004.66
2022-12-25T09:15:27.785Z,1004.68
2022-12-25T09:16:29.884Z,1004.70
2022-12-25T09:17:31.910Z,1004.68
2022-12-25T09:18:33.899Z,1004.71
2022-12-25T09:19:35.916Z,1004.70
2022-12-25T09:20:37.921Z,1004.69
2022-12-25T09:21:39.977Z,1004.69
2022-12-25T09:22:42.013Z,1004.68
2022-12-25T09:23:44.032Z,1004.69
2022-12-25T09:24:46.048Z,1004.66
2022-12-25T09:25:48.084Z,1004.68
2022-12-25T09:26:50.110Z,1004.61
2022-12-25T09:27:52.160Z,1004.56
2022-12-25T09:28:54.190Z,1004.55
2022-12-25T09:29:56.197Z,1004.60
2022-12-25T09:30:58.256Z,1004.59
2022-12-25T09:32:00.248Z,1004.59
2022-12-25T09:33:01.747Z,1004.59
2022-12-25T09:34:03.792Z,1004.58
2022-12-25T09:35:05.790Z,1004.52
2022-12-25T09:36:07.803Z,1004.55
2022-12-25T09:37:09.845Z,1004.51
2022-12-25T09:38:11.892Z,1004.51
2022-12-25T09:39:13.899Z,1004.54
2022-12-25T09:40:15.929Z,1004.51
2022-12-25T09:41:17.957Z,1004.64
2022-12-25T09:42:19.972Z,1004.59
2022-12-25T09:43:21.984Z,1004.62
2022-12-25T09:44:24.038Z,1004.63
2022-12-25T09:45:26.043Z,1004.62
2022-12-25T09:46:36.433Z,1004.67
2022-12-25T09:47:29.510Z,1004.68
2022-12-25T09:48:31.555Z,1004.71
2022-12-25T09:49:33.536Z,1004.75
2022-12-25T09:50:35.582Z,1004.76
2022-12-25T09:51:37.604Z,1004.78
2022-12-25T09:52:39.622Z,1004.71
2022-12-25T09:53:41.633Z,1004.72
2022-12-25T09:54:43.670Z,1004.66
2022-12-25T09:55:45.671Z,1004.66
2022-12-25T09:56:47.706Z,1004.63
2022-12-25T09:57:49.711Z,1004.66
2022-12-25T09:58:51.721Z,1004.62
2022-12-25T09:59:53.746Z,1004.60
2022-12-25T10:00:55.788Z,1004.52
2022-12-25T10:01:57.957Z,1004.54
2022-12-25T10:02:59.245Z,1004.55
2022-12-25T10:04:00.397Z,1004.56
2022-12-25T10:05:02.475Z,1004.58
2022-12-25T10:06:04.498Z,1004.54
2022-12-25T10:07:06.513Z,1004.47
2022-12-25T10:08:08.535Z,1004.49
2022-12-25T10:09:10.587Z,1004.49
2022-12-25T10:10:12.621Z,1004.44
2022-12-25T10:11:14.672Z,1004.47
2022-12-25T10:12:16.692Z,1004.42
2022-12-25T10:13:18.701Z,1004.39
2022-12-25T10:14:20.737Z,1004.35
2022-12-25T10:15:22.775Z,1004.31
2022-12-25T10:16:24.869Z,1004.32
2022-12-25T10:17:26.877Z,1004.32
2022-12-25T10:18:28.897Z,1004.34
2022-12-25T10:19:30.949Z,1004.39
2022-12-25T10:20:32.970Z,1004.35
2022-12-25T10:21:35.010Z,1004.30
2022-12-25T10:22:37.025Z,1004.29
2022-12-25T10:23:39.070Z,1004.25
2022-12-25T10:24:41.098Z,1004.23
2022-12-25T10:25:43.125Z,1004.20
2022-12-25T10:26:45.149Z,1004.15
2022-12-25T10:27:47.175Z,1004.16
2022-12-25T10:28:49.224Z,1004.15
2022-12-25T10:29:51.271Z,1004.19
2022-12-25T10:30:53.439Z,1004.16
2022-12-25T10:31:55.478Z,1004.10
2022-12-25T10:32:57.481Z,1004.11
2022-12-25T10:33:59.485Z,1004.14
2022-12-25T10:35:01.586Z,1004.04
2022-12-25T10:36:03.593Z,1004.07
2022-12-25T10:37:05.625Z,1004.06
2022-12-25T10:38:07.646Z,1004.07
2022-12-25T10:39:09.667Z,1004.03
2022-12-25T10:40:11.750Z,1004.05
2022-12-25T10:41:13.775Z,1003.93
2022-12-25T10:42:15.800Z,1003.95
2022-12-25T10:43:17.830Z,1003.85
2022-12-25T10:44:19.869Z,1003.79
2022-12-25T10:45:21.905Z,1003.87
2022-12-25T10:46:23.996Z,1003.87
2022-12-25T10:47:26.010Z,1003.92
2022-12-25T10:48:28.060Z,1003.94
2022-12-25T10:49:30.104Z,1003.90
2022-12-25T10:50:32.134Z,1003.94
2022-12-25T10:51:34.163Z,1003.88
2022-12-25T10:52:36.165Z,1003.88
2022-12-25T10:53:38.205Z,1003.85
2022-12-25T10:54:40.260Z,1003.85
2022-12-25T10:55:42.291Z,1003.84
2022-12-25T10:56:44.322Z,1003.85
2022-12-25T10:57:46.332Z,1003.81
2022-12-25T10:58:48.350Z,1003.74
2022-12-25T10:59:50.380Z,1003.72
2022-12-25T11:00:52.427Z,1003.71
2022-12-25T11:01:55.662Z,1003.71
2022-12-25T11:02:55.916Z,1003.67
2022-12-25T11:03:57.023Z,1003.71
2022-12-25T11:04:59.028Z,1003.66
2022-12-25T11:06:01.060Z,1003.68
2022-12-25T11:07:03.129Z,1003.57
2022-12-25T11:08:05.146Z,1003.53
2022-12-25T11:09:07.167Z,1003.50
2022-12-25T11:10:09.188Z,1003.46
2022-12-25T11:11:11.220Z,1003.47
2022-12-25T11:12:13.244Z,1003.47
2022-12-25T11:13:15.287Z,1003.44
2022-12-25T11:14:17.332Z,1003.43
2022-12-25T11:15:19.380Z,1003.43
2022-12-25T11:16:21.501Z,1003.40
2022-12-25T11:17:23.510Z,1003.32
2022-12-25T11:18:26.139Z,1003.33
2022-12-25T11:19:27.106Z,1003.34
2022-12-25T11:20:29.123Z,1003.35
2022-12-25T11:21:31.175Z,1003.31
2022-12-25T11:22:33.189Z,1003.25
2022-12-25T11:23:35.195Z,1003.17
2022-12-25T11:24:37.232Z,1003.17
2022-12-25T11:25:39.260Z,1003.12
2022-12-25T11:26:41.294Z,1003.09
2022-12-25T11:27:43.327Z,1003.03
2022-12-25T11:28:45.334Z,1002.95
2022-12-25T11:29:47.384Z,1002.89
2022-12-25T11:30:49.411Z,1002.86
2022-12-25T11:31:51.484Z,1002.83
2022-12-25T11:32:53.582Z,1002.79
2022-12-25T11:33:55.601Z,1002.77
2022-12-25T11:34:57.610Z,1002.69
2022-12-25T11:35:59.655Z,1002.70
2022-12-25T11:37:01.705Z,1002.67
2022-12-25T11:38:03.727Z,1002.64
2022-12-25T11:39:05.751Z,1002.62
2022-12-25T11:40:07.770Z,1002.62
2022-12-25T11:41:09.786Z,1002.61
2022-12-25T11:42:11.866Z,1002.67
2022-12-25T11:43:13.881Z,1002.66
2022-12-25T11:44:15.931Z,1002.66
2022-12-25T11:45:17.943Z,1002.61
2022-12-25T11:46:20.025Z,1002.63
2022-12-25T11:47:22.056Z,1002.57
2022-12-25T11:48:24.101Z,1002.63
2022-12-25T11:49:26.124Z,1002.67
2022-12-25T11:50:28.178Z,1002.72
2022-12-25T11:51:30.212Z,1002.75
2022-12-25T11:52:32.257Z,1002.76
2022-12-25T11:53:34.275Z,1002.80
2022-12-25T11:54:36.289Z,1002.84
2022-12-25T11:55:38.319Z,1002.86
2022-12-25T11:56:40.341Z,1002.79
2022-12-25T11:57:42.410Z,1002.75
2022-12-25T11:58:44.438Z,1002.75
2022-12-25T11:59:46.468Z,1002.75
2022-12-25T12:00:48.497Z,1002.80
2022-12-25T12:01:50.668Z,1002.81
2022-12-25T12:02:51.775Z,1002.81
2022-12-25T12:03:53.869Z,1002.79
2022-12-25T12:04:55.930Z,1002.73
2022-12-25T12:05:57.953Z,1002.78
2022-12-25T12:07:00.000Z,1002.73
2022-12-25T12:08:02.021Z,1002.73
2022-12-25T12:09:04.026Z,1002.62
2022-12-25T12:10:06.052Z,1002.57
2022-12-25T12:11:08.087Z,1002.52
2022-12-25T12:12:10.105Z,1002.41
2022-12-25T12:13:12.155Z,1002.27
2022-12-25T12:14:14.198Z,1002.24
2022-12-25T12:15:16.242Z,1002.22
2022-12-25T12:16:18.296Z,1002.14
2022-12-25T12:17:20.326Z,1002.16
2022-12-25T12:18:22.410Z,1002.17
2022-12-25T12:19:24.418Z,1002.16
2022-12-25T12:20:26.440Z,1002.16
2022-12-25T12:21:28.481Z,1002.14
2022-12-25T12:22:30.530Z,1002.13
2022-12-25T12:23:32.537Z,1002.14
2022-12-25T12:24:34.561Z,1002.16
2022-12-25T12:25:36.605Z,1002.24
2022-12-25T12:26:38.647Z,1002.27
2022-12-25T12:27:40.732Z,1002.36
2022-12-25T12:28:42.756Z,1002.41
2022-12-25T12:29:44.791Z,1002.38
2022-12-25T12:30:46.789Z,1002.36
2022-12-25T12:31:48.906Z,1002.36
2022-12-25T12:32:50.924Z,1002.37
2022-12-25T12:33:52.981Z,1002.39
2022-12-25T12:34:55.002Z,1002.46
2022-12-25T12:35:57.027Z,1002.50
2022-12-25T12:36:59.076Z,1002.52
2022-12-25T12:38:01.097Z,1002.52
2022-12-25T12:39:03.117Z,1002.50
2022-12-25T12:40:05.280Z,1002.51
2022-12-25T12:41:07.258Z,1002.45
2022-12-25T12:42:09.285Z,1002.45
2022-12-25T12:43:11.317Z,1002.46
2022-12-25T12:44:13.378Z,1002.50
2022-12-25T12:45:15.395Z,1002.46
2022-12-25T12:46:17.490Z,1002.46
2022-12-25T12:47:19.526Z,1002.42
2022-12-25T12:48:21.553Z,1002.44
2022-12-25T12:49:23.589Z,1002.49
2022-12-25T12:50:25.628Z,1002.52
2022-12-25T12:51:27.646Z,1002.50
2022-12-25T12:52:29.711Z,1002.50
2022-12-25T12:53:31.736Z,1002.44
2022-12-25T12:54:33.772Z,1002.43
2022-12-25T12:55:35.788Z,1002.37
2022-12-25T12:56:37.834Z,1002.38
2022-12-25T12:57:40.167Z,1002.32
2022-12-25T12:58:41.107Z,1002.31
2022-12-25T12:59:43.149Z,1002.33
2022-12-25T13:00:45.192Z,1002.36
2022-12-25T13:01:47.476Z,1002.34
2022-12-25T13:02:48.558Z,1002.38
2022-12-25T13:03:50.618Z,1002.45
2022-12-25T13:04:52.650Z,1002.44
2022-12-25T13:05:54.695Z,1002.49
2022-12-25T13:06:56.740Z,1002.43
2022-12-25T13:07:58.773Z,1002.45
2022-12-25T13:09:00.783Z,1002.46
2022-12-25T13:10:02.810Z,1002.41
2022-12-25T13:11:04.852Z,1002.38
2022-12-25T13:12:06.854Z,1002.33
2022-12-25T13:13:08.879Z,1002.32
2022-12-25T13:14:10.922Z,1002.27
2022-12-25T13:15:12.953Z,1002.28
2022-12-25T13:16:15.041Z,1002.35
2022-12-25T13:17:17.026Z,1002.34
2022-12-25T13:18:19.068Z,1002.29
2022-12-25T13:19:21.111Z,1002.18
2022-12-25T13:20:23.159Z,1002.16
2022-12-25T13:21:25.202Z,1002.13
2022-12-25T13:22:27.264Z,1002.13
2022-12-25T13:23:29.276Z,1002.14
2022-12-25T13:24:31.300Z,1002.14
2022-12-25T13:25:33.331Z,1002.14
2022-12-25T13:26:35.372Z,1002.13
2022-12-25T13:27:37.404Z,1002.14
2022-12-25T13:28:39.421Z,1002.11
2022-12-25T13:29:40.859Z,1001.99
2022-12-25T13:30:42.887Z,1001.96
2022-12-25T13:31:44.960Z,1002.01
2022-12-25T13:32:47.031Z,1002.06
2022-12-25T13:33:49.054Z,1002.06
2022-12-25T13:34:51.110Z,1002.04
2022-12-25T13:35:53.167Z,1002.01
2022-12-25T13:36:55.216Z,1002.02
2022-12-25T13:37:57.253Z,1002.02
2022-12-25T13:38:59.301Z,1002.05
2022-12-25T13:40:01.323Z,1002.00
2022-12-25T13:41:03.382Z,1001.98
2022-12-25T13:42:05.442Z,1001.98
2022-12-25T13:43:07.483Z,1001.92
2022-12-25T13:44:09.521Z,1001.98
2022-12-25T13:45:11.542Z,1001.99
2022-12-25T13:46:13.670Z,1002.06
2022-12-25T13:47:15.755Z,1002.01
2022-12-25T13:48:17.789Z,1001.97
2022-12-25T13:49:19.808Z,1001.81
2022-12-25T13:50:21.855Z,1001.85
2022-12-25T13:51:23.913Z,1001.85
2022-12-25T13:52:25.949Z,1001.85
2022-12-25T13:53:27.995Z,1001.81
2022-12-25T13:54:30.038Z,1001.81
2022-12-25T13:55:32.029Z,1001.84
2022-12-25T13:56:34.047Z,1001.93
2022-12-25T13:57:36.081Z,1001.84
2022-12-25T13:58:38.095Z,1001.84
2022-12-25T13:59:40.162Z,1001.86
2022-12-25T14:00:42.161Z,1001.83
2022-12-25T14:01:44.331Z,1001.79
2022-12-25T14:02:46.455Z,1001.82
2022-12-25T14:03:58.200Z,1001.89
2022-12-25T14:04:50.304Z,1001.90
2022-12-25T14:05:52.355Z,1001.92
2022-12-25T14:06:54.409Z,1002.00
2022-12-25T14:07:56.424Z,1001.98
2022-12-25T14:08:58.454Z,1001.91
2022-12-25T14:10:00.501Z,1001.88
2022-12-25T14:11:02.562Z,1001.82
2022-12-25T14:12:04.622Z,1001.82
2022-12-25T14:13:06.676Z,1001.82
2022-12-25T14:14:08.685Z,1001.85
2022-12-25T14:15:10.720Z,1001.89
2022-12-25T14:16:12.786Z,1001.98
2022-12-25T14:17:14.810Z,1001.93
2022-12-25T14:18:16.861Z,1001.91
2022-12-25T14:19:18.854Z,1001.90
2022-12-25T14:20:20.899Z,1001.96
2022-12-25T14:21:22.922Z,1002.03
2022-12-25T14:22:24.952Z,1002.04
2022-12-25T14:23:26.992Z,1002.09
2022-12-25T14:24:29.023Z,1002.04
2022-12-25T14:25:31.045Z,1002.03
2022-12-25T14:26:33.069Z,1002.06
2022-12-25T14:27:35.123Z,1002.07
2022-12-25T14:28:37.151Z,1002.07
2022-12-25T14:29:39.168Z,1002.10
2022-12-25T14:30:41.217Z,1002.05
2022-12-25T14:31:43.231Z,1002.07
2022-12-25T14:32:45.276Z,1002.01
2022-12-25T14:33:47.340Z,1001.92
2022-12-25T14:34:49.377Z,1001.93
2022-12-25T14:35:51.390Z,1001.91
2022-12-25T14:36:53.451Z,1001.89
2022-12-25T14:37:55.468Z,1001.79
2022-12-25T14:38:57.508Z,1001.76
2022-12-25T14:39:59.533Z,1001.76
2022-12-25T14:41:01.585Z,1001.69
2022-12-25T14:42:03.612Z,1001.75
2022-12-25T14:43:05.635Z,1001.73
2022-12-25T14:44:07.689Z,1001.76
2022-12-25T14:45:09.711Z,1001.71
2022-12-25T14:46:10.928Z,1001.72
2022-12-25T14:47:13.000Z,1001.71
2022-12-25T14:48:19.760Z,1001.71
2022-12-25T14:49:16.516Z,1001.66
2022-12-25T14:50:18.529Z,1001.66
2022-12-25T14:51:20.525Z,1001.68
2022-12-25T14:53:24.656Z,1001.51
2022-12-25T14:54:26.694Z,1001.48
2022-12-25T14:55:28.770Z,1001.44
